Time;durP1;ratioP1;P1;durP2;ratioP2;P2;SDS_P1;SDS_P2;PMS_P1;PMS_P2;Temp;Humidity;BMP_temperature;BMP_pressure;BME280_temperature;BME280_humidity;BME280_pressure;Samples;Min_cycle;Max_cycle;Signal;HPM_P1;HPM_P2
2023/07/15 00:02:45;;;;;;;30.17;10.38;;;;;;;20.82;85.45;99707.66;10368855;28;20030;-66
2023/07/15 00:07:48;;;;;;;24.40;10.23;;;;;;;20.87;85.64;99721.22;10370396;28;20042;-67
2023/07/15 00:12:49;;;;;;;26.13;10.32;;;;;;;20.83;85.63;99712.81;10371422;28;20564;-66
2023/07/15 00:17:50;;;;;;;20.85;10.30;;;;;;;20.50;86.10;99682.13;10371351;28;20167;-67
2023/07/15 00:22:51;;;;;;;18.67;9.43;;;;;;;20.81;86.19;99733.03;10371389;28;20114;-68
2023/07/15 00:27:52;;;;;;;18.77;9.10;;;;;;;20.61;86.14;99720.91;10371547;28;20117;-66
2023/07/15 00:32:52;;;;;;;19.80;8.85;;;;;;;20.55;86.40;99735.41;10370684;28;20110;-67
2023/07/15 00:37:53;;;;;;;26.85;10.23;;;;;;;20.47;86.87;99742.00;10370601;28;20050;-67
2023/07/15 00:43:31;;;;;;;26.75;10.93;;;;;;;20.48;88.21;99742.81;10370354;28;20034;-68
2023/07/15 00:48:33;;;;;;;26.85;10.60;;;;;;;20.16;86.92;99716.47;10370364;28;20042;-66
2023/07/15 00:53:34;;;;;;;28.48;8.93;;;;;;;20.21;86.81;99730.00;10368671;28;20038;-64
2023/07/15 00:58:35;;;;;;;59.42;11.32;;;;;;;20.24;86.73;99736.78;10371267;28;20050;-64
2023/07/15 01:03:37;;;;;;;33.03;9.00;;;;;;;20.17;86.52;99723.47;10370892;28;20038;-64
2023/07/15 01:08:38;;;;;;;22.23;8.18;;;;;;;19.21;86.37;99591.47;10369702;28;20520;-64
2023/07/15 01:13:39;;;;;;;30.33;9.23;;;;;;;20.16;86.29;99732.63;10368342;28;20030;-64
2023/07/15 01:18:40;;;;;;;39.15;9.63;;;;;;;20.21;86.45;99739.97;10370029;28;20064;-65
2023/07/15 01:23:41;;;;;;;47.83;15.52;;;;;;;20.09;86.88;99739.25;10369538;28;20128;-63
2023/07/15 01:28:42;;;;;;;36.67;16.25;;;;;;;19.41;87.16;99652.09;10369688;28;20597;-64
2023/07/15 01:33:43;;;;;;;25.40;12.20;;;;;;;19.46;87.42;99669.16;10370255;28;20058;-64
2023/07/15 01:38:44;;;;;;;51.17;13.95;;;;;;;19.94;87.54;99747.91;10368610;28;20054;-64
2023/07/15 01:43:45;;;;;;;38.55;12.23;;;;;;;19.92;87.67;99753.50;10369902;28;20046;-64
2023/07/15 01:48:46;;;;;;;28.25;10.90;;;;;;;19.91;87.58;99759.16;10368394;28;20501;-64
2023/07/15 01:53:47;;;;;;;15.82;8.18;;;;;;;19.89;87.49;99769.38;10368761;28;20046;-64
2023/07/15 01:58:48;;;;;;;29.98;9.50;;;;;;;19.47;87.52;99705.81;10368273;28;20049;-64
2023/07/15 02:03:49;;;;;;;20.42;8.93;;;;;;;19.82;87.77;99764.13;10368275;28;20097;-64
2023/07/15 02:08:49;;;;;;;20.73;7.72;;;;;;;19.93;87.46;99775.91;10366509;28;20040;-64
2023/07/15 02:13:50;;;;;;;29.73;9.13;;;;;;;19.64;87.55;99713.94;10368619;28;20439;-64
2023/07/15 02:18:51;;;;;;;80.47;11.80;;;;;;;20.06;87.67;99781.81;10368245;28;20171;-64
2023/07/15 02:23:52;;;;;;;49.38;9.25;;;;;;;19.69;87.51;99722.16;10367719;28;20054;-64
2023/07/15 02:28:52;;;;;;;23.95;8.45;;;;;;;19.90;87.05;99728.69;10366557;28;20478;-64
2023/07/15 02:33:53;;;;;;;29.17;8.00;;;;;;;20.56;86.25;99771.28;10367900;28;20406;-64
2023/07/15 02:38:54;;;;;;;17.40;7.10;;;;;;;20.72;85.40;99746.13;10366907;28;20091;-64
2023/07/15 02:43:55;;;;;;;14.85;7.30;;;;;;;21.24;84.55;99788.94;10365425;28;20070;-66
2023/07/15 02:48:55;;;;;;;15.00;6.57;;;;;;;22.02;82.32;99791.41;10367461;28;20038;-64
2023/07/15 02:54:01;;;;;;;13.07;5.72;;;;;;;22.75;78.23;99795.22;10366528;28;20042;-64
2023/07/15 02:59:02;;;;;;;30.98;7.13;;;;;;;22.96;77.96;99768.28;10366875;28;20451;-64
2023/07/15 03:04:03;;;;;;;18.38;6.40;;;;;;;23.14;76.80;99732.59;10366113;28;20053;-64
2023/07/15 03:09:04;;;;;;;13.18;6.07;;;;;;;24.81;71.99;99783.72;10366251;28;20042;-65
2023/07/15 03:14:05;;;;;;;18.67;6.85;;;;;;;25.65;69.08;99759.47;10365593;28;20038;-64
2023/07/15 03:19:06;;;;;;;20.17;6.13;;;;;;;26.76;66.27;99775.16;10366357;28;20050;-64
2023/07/15 03:24:07;;;;;;;13.77;6.38;;;;;;;27.61;64.05;99773.56;10365653;28;20501;-65
2023/07/15 03:29:09;;;;;;;24.42;7.15;;;;;;;28.30;61.26;99771.97;10365851;28;20046;-64
2023/07/15 03:34:09;;;;;;;13.35;6.05;;;;;;;28.07;59.69;99727.28;10366577;28;20088;-64
2023/07/15 03:39:10;;;;;;;16.73;5.55;;;;;;;28.79;57.83;99775.19;10370915;28;20052;-64
2023/07/15 03:44:11;;;;;;;15.02;5.53;;;;;;;29.64;55.25;99797.53;10372847;28;20065;-65
2023/07/15 03:49:12;;;;;;;11.80;5.25;;;;;;;30.56;52.81;99792.56;10372974;28;20124;-66
2023/07/15 03:54:12;;;;;;;25.30;6.07;;;;;;;31.07;51.56;99785.72;10370737;28;20049;-64
2023/07/15 03:59:13;;;;;;;12.88;5.30;;;;;;;31.41;49.54;99778.69;10371373;28;20042;-65
2023/07/15 04:04:14;;;;;;;21.15;5.63;;;;;;;30.89;50.16;99785.66;10371819;28;20160;-65
2023/07/15 04:09:16;;;;;;;11.43;5.25;;;;;;;31.24;48.42;99743.78;10370627;28;20042;-65
2023/07/15 04:14:17;;;;;;;7.18;4.85;;;;;;;32.42;46.28;99782.84;10370432;28;20129;-65
2023/07/15 04:19:18;;;;;;;13.68;4.60;;;;;;;31.68;45.68;99767.44;10371318;28;20121;-65
2023/07/15 04:24:18;;;;;;;8.52;4.70;;;;;;;31.35;45.25;99780.78;10371541;28;20042;-65
2023/07/15 04:29:19;;;;;;;12.10;4.03;;;;;;;31.07;44.28;99758.28;10371204;28;20045;-65
2023/07/15 04:34:20;;;;;;;7.35;4.00;;;;;;;31.46;42.31;99787.59;10371645;28;20047;-64
2023/07/15 04:39:21;;;;;;;7.25;3.70;;;;;;;30.16;43.14;99806.97;10371133;28;20046;-65
2023/07/15 04:44:22;;;;;;;10.27;4.15;;;;;;;28.60;44.80;99737.84;10371522;28;20041;-64
2023/07/15 04:49:23;;;;;;;8.05;3.67;;;;;;;28.65;45.03;99802.50;10369998;28;20132;-64
2023/07/15 04:54:24;;;;;;;7.55;4.32;;;;;;;28.43;44.64;99797.72;10371018;28;20048;-67
2023/07/15 04:59:25;;;;;;;12.13;3.97;;;;;;;29.18;43.19;99736.41;10370554;28;20044;-65
2023/07/15 05:04:26;;;;;;;11.52;4.53;;;;;;;30.53;41.85;99798.69;10369887;28;20038;-65
2023/07/15 05:09:29;;;;;;;11.57;3.80;;;;;;;30.86;41.42;99796.44;10369549;28;20045;-64
2023/07/15 05:14:30;;;;;;;22.55;4.07;;;;;;;31.05;42.58;99797.03;10369836;28;20087;-64
2023/07/15 05:19:32;;;;;;;7.50;3.38;;;;;;;31.16;42.41;99789.28;10370549;28;20558;-65
2023/07/15 05:24:32;;;;;;;7.97;3.63;;;;;;;30.91;43.21;99791.63;10368858;28;20077;-64
2023/07/15 05:29:33;;;;;;;5.82;3.50;;;;;;;30.56;44.00;99792.56;10368892;28;20464;-64
2023/07/15 05:34:34;;;;;;;14.40;3.53;;;;;;;30.16;43.92;99719.31;10368965;28;20052;-65
2023/07/15 05:39:35;;;;;;;6.38;3.13;;;;;;;30.42;44.00;99781.69;10369216;28;20053;-63
2023/07/15 05:44:36;;;;;;;13.35;3.97;;;;;;;30.29;45.00;99750.53;10368997;28;20045;-64
2023/07/15 05:49:36;;;;;;;7.88;3.40;;;;;;;30.67;44.53;99780.22;10369607;28;20106;-63
2023/07/15 05:54:37;;;;;;;18.70;4.30;;;;;;;30.13;44.10;99698.03;10368699;28;20034;-66
2023/07/15 05:59:38;;;;;;;15.20;4.05;;;;;;;30.17;44.64;99774.91;10367705;28;20501;-63
2023/07/15 06:04:39;;;;;;;7.32;3.28;;;;;;;29.37;45.50;99702.63;10367893;28;20493;-64
2023/07/15 06:09:39;;;;;;;14.00;3.53;;;;;;;29.80;45.70;99761.28;10366677;28;20145;-65
2023/07/15 06:14:40;;;;;;;22.20;4.57;;;;;;;29.47;46.18;99675.84;10368124;28;20076;-64
2023/07/15 06:19:41;;;;;;;9.60;3.85;;;;;;;29.49;46.24;99722.84;10367608;28;20080;-65
2023/07/15 06:24:41;;;;;;;15.15;3.90;;;;;;;29.39;46.44;99694.91;10367664;28;20425;-65
2023/07/15 06:29:42;;;;;;;10.60;4.32;;;;;;;30.07;46.49;99750.53;10367810;28;20057;-64
2023/07/15 06:34:43;;;;;;;14.32;3.85;;;;;;;30.43;46.16;99740.28;10367574;28;20038;-65
2023/07/15 06:39:44;;;;;;;7.40;3.22;;;;;;;30.57;45.42;99712.75;10367861;28;20050;-64
2023/07/15 06:44:44;;;;;;;12.43;3.90;;;;;;;30.90;45.22;99731.59;10368247;28;20046;-64
2023/07/15 06:49:45;;;;;;;7.47;3.63;;;;;;;30.84;45.35;99714.50;10364453;28;20042;-64
2023/07/15 06:54:46;;;;;;;12.70;3.72;;;;;;;30.97;46.10;99742.13;10365708;28;20532;-64
2023/07/15 06:59:47;;;;;;;12.48;3.42;;;;;;;30.95;44.82;99717.75;10365714;28;20042;-65
2023/07/15 07:04:48;;;;;;;11.07;3.53;;;;;;;30.61;44.63;99663.63;10366604;28;20087;-65
2023/07/15 07:09:49;;;;;;;11.90;3.53;;;;;;;31.15;44.48;99721.84;10366474;28;20082;-64
2023/07/15 07:14:50;;;;;;;12.52;3.25;;;;;;;31.16;44.36;99704.22;10365937;28;20049;-64
2023/07/15 07:19:51;;;;;;;15.27;3.47;;;;;;;31.18;43.73;99712.16;10366158;28;20049;-65
2023/07/15 07:24:54;;;;;;;14.50;3.55;;;;;;;31.38;43.97;99726.09;10365893;28;20049;-65
2023/07/15 07:29:58;;;;;;;16.77;3.05;;;;;;;31.43;43.26;99713.31;10365891;28;20050;-64
2023/07/15 07:34:59;;;;;;;20.02;4.07;;;;;;;31.59;43.29;99700.72;10365229;28;20089;-65
2023/07/15 07:40:00;;;;;;;12.27;3.22;;;;;;;31.38;42.98;99649.25;10365840;28;20115;-65
2023/07/15 07:45:00;;;;;;;10.88;3.33;;;;;;;31.83;42.52;99689.25;10364129;28;20528;-65
2023/07/15 07:50:01;;;;;;;12.13;3.22;;;;;;;32.02;41.87;99686.16;10365193;28;20042;-66
2023/07/15 07:55:03;;;;;;;21.17;4.95;;;;;;;32.15;41.38;99696.13;10365391;28;20425;-64
2023/07/15 08:00:05;;;;;;;11.85;3.60;;;;;;;32.33;41.47;99693.31;10364747;28;20124;-66
2023/07/15 08:05:06;;;;;;;5.63;3.17;;;;;;;32.42;40.98;99685.84;10358164;28;20045;-65
2023/07/15 08:10:07;;;;;;;29.48;4.68;;;;;;;32.20;41.36;99626.44;10363257;28;20092;-67
2023/07/15 08:15:08;;;;;;;13.73;3.80;;;;;;;32.49;41.36;99678.72;10361007;28;20068;-67
2023/07/15 08:20:09;;;;;;;13.32;3.70;;;;;;;32.65;41.08;99687.22;10363775;28;20403;-64
2023/07/15 08:25:10;;;;;;;9.10;3.53;;;;;;;32.73;40.21;99667.13;10368230;28;20033;-65
2023/07/15 08:30:11;;;;;;;13.10;3.92;;;;;;;32.86;40.70;99672.69;10371139;28;20058;-66
2023/07/15 08:35:12;;;;;;;17.10;4.13;;;;;;;32.91;40.38;99673.31;10372348;28;20137;-66
2023/07/15 08:40:14;;;;;;;10.48;4.82;;;;;;;32.90;40.70;99670.88;10370747;28;20472;-63
2023/07/15 08:45:14;;;;;;;17.95;4.90;;;;;;;32.50;40.26;99621.81;10370287;28;20070;-63
2023/07/15 08:50:17;;;;;;;11.63;4.45;;;;;;;32.84;40.54;99667.50;10371547;28;20489;-64
2023/07/15 08:55:19;;;;;;;12.32;4.35;;;;;;;32.89;40.69;99666.53;10371252;28;20129;-63
2023/07/15 09:00:19;;;;;;;16.75;4.45;;;;;;;32.43;40.82;99594.00;10370783;28;20052;-64
2023/07/15 09:05:21;;;;;;;19.45;4.90;;;;;;;32.46;40.96;99594.19;10370489;28;20493;-63
2023/07/15 09:10:21;;;;;;;12.73;4.72;;;;;;;32.99;41.63;99665.34;10368527;28;20068;-65
2023/07/15 09:15:22;;;;;;;16.95;4.28;;;;;;;32.58;42.76;99667.69;10368828;28;20048;-64
2023/07/15 09:20:26;;;;;;;14.70;4.88;;;;;;;32.64;42.77;99669.13;10364653;28;20072;-64
2023/07/15 09:25:27;;;;;;;27.85;5.25;;;;;;;32.62;42.99;99690.63;10354643;28;20047;-65
2023/07/15 09:30:28;;;;;;;19.98;4.25;;;;;;;32.62;43.71;99674.13;10345477;28;20409;-66
2023/07/15 09:35:41;;;;;;;27.77;5.45;;;;;;;32.79;44.26;99686.16;10352353;28;20040;-66
2023/07/15 09:40:42;;;;;;;21.48;4.80;;;;;;;31.94;43.82;99568.84;10350809;28;20053;-66
2023/07/15 09:45:43;;;;;;;17.45;4.53;;;;;;;32.53;43.07;99678.88;10345991;28;20042;-64
2023/07/15 09:50:44;;;;;;;23.23;5.03;;;;;;;32.53;43.09;99687.13;10344403;28;20050;-64
2023/07/15 09:55:45;;;;;;;14.60;4.07;;;;;;;32.71;42.56;99688.63;10356117;28;20046;-66
2023/07/15 10:00:50;;;;;;;11.68;4.88;;;;;;;32.75;42.44;99686.03;10362747;28;20045;-65
2023/07/15 10:05:52;;;;;;;18.25;4.43;;;;;;;32.73;42.67;99672.63;10346854;28;20038;-66
2023/07/15 10:10:52;;;;;;;18.63;4.53;;;;;;;32.61;42.40;99631.28;10357214;28;20058;-66
2023/07/15 10:15:53;;;;;;;7.22;3.80;;;;;;;32.90;41.28;99673.63;10367558;28;20410;-66
2023/07/15 10:20:55;;;;;;;10.82;4.45;;;;;;;32.99;41.31;99684.63;10364921;28;20038;-65
2023/07/15 10:26:03;;;;;;;25.88;4.03;;;;;;;33.06;41.28;99702.22;10364498;28;20049;-66
2023/07/15 10:31:11;;;;;;;20.30;3.67;;;;;;;32.94;39.56;99708.41;10363669;28;20061;-65
2023/07/15 10:36:12;;;;;;;9.98;3.10;;;;;;;32.67;39.36;99686.91;10365183;28;20046;-65
2023/07/15 10:41:13;;;;;;;12.75;2.92;;;;;;;32.76;39.24;99690.41;10360722;28;20049;-66
2023/07/15 10:46:17;;;;;;;13.60;3.10;;;;;;;32.82;38.43;99689.06;10365524;28;20050;-65
2023/07/15 10:51:18;;;;;;;6.38;2.35;;;;;;;32.61;38.42;99699.19;10366685;28;20042;-65
2023/07/15 10:56:19;;;;;;;9.18;2.40;;;;;;;32.78;38.10;99692.81;10366874;28;20133;-64
2023/07/15 11:01:20;;;;;;;6.43;2.45;;;;;;;32.42;37.77;99639.09;10366082;28;20131;-66
2023/07/15 11:06:25;;;;;;;10.68;2.40;;;;;;;32.91;38.05;99700.03;10367215;28;20049;-65
2023/07/15 11:11:26;;;;;;;6.57;2.33;;;;;;;32.99;38.14;99693.66;10366116;28;20038;-65
2023/07/15 11:16:26;;;;;;;5.75;2.22;;;;;;;32.83;37.94;99684.38;10365467;28;20049;-67
2023/07/15 11:21:27;;;;;;;10.18;2.50;;;;;;;32.66;38.38;99679.75;10366258;28;20042;-64
2023/07/15 11:26:28;;;;;;;18.98;2.60;;;;;;;32.98;38.00;99697.56;10365982;28;20091;-63
2023/07/15 11:31:30;;;;;;;13.63;3.05;;;;;;;33.18;38.36;99696.78;10359872;28;20099;-66
2023/07/15 11:36:30;;;;;;;30.70;3.80;;;;;;;32.82;38.14;99625.81;10335973;28;20049;-65
2023/07/15 11:41:36;;;;;;;34.38;3.33;;;;;;;33.24;38.43;99704.84;10357871;28;20042;-66
2023/07/15 11:46:43;;;;;;;17.48;3.38;;;;;;;33.12;38.35;99706.38;10365135;28;20038;-65
2023/07/15 11:51:44;;;;;;;14.48;2.70;;;;;;;33.02;38.82;99704.00;10354216;28;20587;-65
2023/07/15 11:56:47;;;;;;;8.02;2.60;;;;;;;32.73;38.10;99716.63;10357113;28;20058;-64
2023/07/15 12:01:47;;;;;;;11.93;2.55;;;;;;;32.13;39.44;99651.69;10348566;28;20045;-64
2023/07/15 12:06:51;;;;;;;12.57;2.70;;;;;;;32.60;38.79;99708.59;10353625;28;20046;-65
2023/07/15 12:11:52;;;;;;;11.57;3.10;;;;;;;32.41;38.65;99726.28;10345211;28;20076;-64
2023/07/15 12:16:55;;;;;;;8.75;3.05;;;;;;;32.17;39.87;99715.84;10370164;28;20061;-64
2023/07/15 12:21:56;;;;;;;9.38;3.15;;;;;;;32.25;39.58;99725.22;10336642;28;20547;-65
2023/07/15 12:26:57;;;;;;;13.85;3.85;;;;;;;31.91;39.71;99717.84;10364136;28;20065;-65
2023/07/15 12:31:58;;;;;;;20.38;3.80;;;;;;;31.63;39.88;99728.34;10348717;28;20053;-65
2023/07/15 12:36:58;;;;;;;8.35;3.10;;;;;;;31.21;40.27;99708.78;10347149;28;20147;-70
2023/07/15 12:41:59;;;;;;;11.38;3.20;;;;;;;31.20;40.82;99740.88;10330793;28;20087;-70
2023/07/15 12:47:00;;;;;;;10.65;3.10;;;;;;;31.24;40.50;99719.91;10352132;28;20053;-71
2023/07/15 12:52:01;;;;;;;28.95;4.00;;;;;;;31.52;40.95;99725.09;10359011;28;20044;-68
2023/07/15 12:57:02;;;;;;;13.32;3.47;;;;;;;31.14;40.91;99654.34;10353084;28;20050;-69
2023/07/15 13:02:03;;;;;;;7.97;3.35;;;;;;;31.74;40.58;99743.34;10366978;28;20053;-70
2023/07/15 13:07:04;;;;;;;6.82;3.35;;;;;;;31.14;40.91;99677.13;10362437;28;20037;-69
2023/07/15 13:12:05;;;;;;;7.97;3.58;;;;;;;31.22;41.51;99738.63;10356834;28;20038;-68
2023/07/15 13:17:06;;;;;;;10.65;3.58;;;;;;;31.02;41.64;99751.03;10358620;28;20046;-69
2023/07/15 13:22:07;;;;;;;21.60;4.35;;;;;;;30.32;41.51;99626.59;10365567;28;20042;-69
2023/07/15 13:27:07;;;;;;;8.60;2.75;;;;;;;31.00;40.67;99683.91;10354376;28;20046;-67
2023/07/15 13:32:09;;;;;;;7.82;2.80;;;;;;;31.13;40.65;99732.31;10364465;28;20409;-68
2023/07/15 13:37:09;;;;;;;8.23;2.95;;;;;;;31.07;40.77;99734.38;10367885;28;20080;-69
2023/07/15 13:42:13;;;;;;;7.53;3.30;;;;;;;31.21;40.68;99738.94;10367880;28;20052;-69
2023/07/15 13:47:14;;;;;;;7.60;2.83;;;;;;;30.82;40.35;99714.00;10367193;28;20081;-72
2023/07/15 13:52:14;;;;;;;17.92;3.05;;;;;;;31.03;40.29;99743.59;10366109;28;20124;-71
2023/07/15 13:57:15;;;;;;;24.50;3.40;;;;;;;30.73;41.00;99691.22;10352603;28;20128;-68
2023/07/15 14:02:17;;;;;;;10.85;3.40;;;;;;;30.99;41.26;99745.34;10346489;28;20042;-68
2023/07/15 14:07:18;;;;;;;6.78;3.08;;;;;;;31.00;40.94;99727.78;10346297;28;20108;-67
2023/07/15 14:12:19;;;;;;;6.00;3.00;;;;;;;31.19;40.47;99713.75;10365703;28;20382;-68
2023/07/15 14:17:20;;;;;;;8.02;2.60;;;;;;;31.12;40.35;99730.69;10360793;28;20039;-69
2023/07/15 14:22:21;;;;;;;5.05;3.28;;;;;;;30.80;40.66;99753.84;10348289;28;20034;-68
2023/07/15 14:27:22;;;;;;;15.38;3.65;;;;;;;30.53;41.45;99766.59;10347088;28;20133;-69
2023/07/15 14:32:23;;;;;;;10.68;3.13;;;;;;;30.90;40.67;99748.88;10347176;28;20509;-68
2023/07/15 14:37:23;;;;;;;13.68;2.83;;;;;;;31.29;40.80;99771.06;10344029;28;20489;-70
2023/07/15 14:42:24;;;;;;;6.18;2.85;;;;;;;30.89;39.93;99706.13;10346676;28;20133;-67
2023/07/15 14:47:25;;;;;;;8.10;2.83;;;;;;;31.26;40.45;99771.69;10343967;28;20497;-68
2023/07/15 14:52:26;;;;;;;13.02;2.90;;;;;;;30.75;40.20;99697.16;10352881;28;20038;-68
2023/07/15 14:57:26;;;;;;;6.82;3.13;;;;;;;31.12;41.09;99766.38;10345448;28;20410;-68
2023/07/15 15:02:27;;;;;;;7.60;2.75;;;;;;;30.99;40.67;99772.78;10335906;28;20042;-68
2023/07/15 15:07:28;;;;;;;10.35;3.17;;;;;;;30.84;41.13;99765.78;10366497;28;20512;-68
2023/07/15 15:12:29;;;;;;;9.93;3.25;;;;;;;30.79;41.97;99783.19;10365430;28;20045;-67
2023/07/15 15:17:30;;;;;;;7.82;3.00;;;;;;;30.56;42.05;99787.09;10366294;28;20050;-69
2023/07/15 15:22:30;;;;;;;8.07;3.30;;;;;;;29.95;42.13;99729.19;10366867;28;20053;-67
2023/07/15 15:27:31;;;;;;;6.03;3.22;;;;;;;29.98;42.42;99797.84;10365450;28;20447;-67
2023/07/15 15:32:32;;;;;;;7.13;3.00;;;;;;;29.56;42.06;99745.13;10344253;28;20046;-67
2023/07/15 15:37:33;;;;;;;8.60;2.75;;;;;;;29.77;42.57;99804.91;10360860;28;20553;-69
2023/07/15 15:42:34;;;;;;;25.42;3.70;;;;;;;29.61;42.97;99789.91;10360569;28;20042;-68
2023/07/15 15:47:35;;;;;;;8.07;3.20;;;;;;;29.39;43.02;99783.28;10340231;28;20050;-69
2023/07/15 15:52:35;;;;;;;4.18;2.80;;;;;;;29.45;42.90;99820.34;10331474;28;20129;-70
2023/07/15 15:57:36;;;;;;;12.55;3.13;;;;;;;29.19;43.32;99816.53;10331655;28;20436;-70
2023/07/15 16:02:38;;;;;;;8.15;2.83;;;;;;;29.08;43.82;99833.16;10332164;28;20038;-70
2023/07/15 16:07:39;;;;;;;6.07;3.15;;;;;;;28.90;43.83;99828.56;10341853;28;20556;-69
2023/07/15 16:12:39;;;;;;;10.02;3.30;;;;;;;28.80;43.65;99845.13;10372009;28;20133;-69
2023/07/15 16:17:40;;;;;;;8.38;3.05;;;;;;;28.58;43.87;99832.16;10371749;28;20409;-68
2023/07/15 16:22:41;;;;;;;7.03;3.00;;;;;;;28.61;44.11;99847.94;10372369;28;20392;-69
2023/07/15 16:27:42;;;;;;;6.18;2.85;;;;;;;28.06;43.86;99793.94;10371303;28;20232;-68
2023/07/15 16:32:43;;;;;;;8.20;3.60;;;;;;;27.94;44.26;99807.22;10365107;28;20058;-69
2023/07/15 16:37:44;;;;;;;6.40;2.75;;;;;;;28.09;44.53;99860.75;10360939;28;20050;-68
2023/07/15 16:42:44;;;;;;;16.02;3.28;;;;;;;27.57;45.20;99811.53;10367399;28;20494;-69
2023/07/15 16:47:45;;;;;;;7.30;4.45;;;;;;;27.85;45.33;99869.03;10367581;28;20041;-68
2023/07/15 16:52:46;;;;;;;10.45;3.45;;;;;;;27.65;45.20;99860.00;10355375;28;20044;-68
2023/07/15 16:57:47;;;;;;;9.80;3.30;;;;;;;27.65;45.09;99883.75;10361741;28;20054;-67
2023/07/15 17:02:48;;;;;;;9.85;3.13;;;;;;;27.55;44.86;99890.13;10370022;28;20050;-68
2023/07/15 17:07:48;;;;;;;6.55;2.92;;;;;;;27.02;44.88;99816.56;10365986;28;20049;-70
2023/07/15 17:12:49;;;;;;;8.57;3.15;;;;;;;27.07;45.20;99847.31;10366498;28;20041;-68
2023/07/15 17:17:51;;;;;;;7.55;3.25;;;;;;;27.26;45.28;99899.22;10361100;28;20417;-69
2023/07/15 17:22:52;;;;;;;5.72;3.10;;;;;;;26.69;45.80;99830.00;10355927;28;20126;-69
2023/07/15 17:27:53;;;;;;;12.18;4.30;;;;;;;27.02;46.20;99904.63;10365337;28;20076;-70
2023/07/15 17:32:54;;;;;;;12.13;3.70;;;;;;;26.83;46.62;99892.78;10368558;28;20398;-69
2023/07/15 17:37:55;;;;;;;6.47;3.60;;;;;;;26.90;47.44;99923.25;10367190;28;20045;-70
2023/07/15 17:42:55;;;;;;;10.93;3.42;;;;;;;26.73;47.92;99920.16;10367859;28;20042;-70
2023/07/15 17:47:56;;;;;;;6.35;3.38;;;;;;;26.27;48.71;99866.81;10349499;28;20482;-69
2023/07/15 17:52:57;;;;;;;7.30;2.88;;;;;;;26.58;49.15;99948.31;10345425;28;20049;-71
2023/07/15 17:57:58;;;;;;;5.95;3.25;;;;;;;26.52;49.51;99957.63;10338805;28;20494;-70
2023/07/15 18:02:58;;;;;;;4.15;3.17;;;;;;;26.16;49.82;99914.25;10345507;28;20042;-69
2023/07/15 18:07:59;;;;;;;10.10;3.85;;;;;;;26.37;50.22;99972.94;10341931;28;20033;-69
2023/07/15 18:13:00;;;;;;;15.00;4.03;;;;;;;26.27;50.65;99964.03;10350437;28;20042;-70
2023/07/15 18:18:01;;;;;;;7.88;3.50;;;;;;;26.15;51.09;99976.06;10335064;28;20053;-70
2023/07/15 18:23:01;;;;;;;5.55;3.63;;;;;;;25.93;51.75;99953.84;10357281;28;20050;-71
2023/07/15 18:28:02;;;;;;;9.80;3.60;;;;;;;26.02;52.10;99992.19;10335133;28;20072;-68
2023/07/15 18:33:03;;;;;;;5.43;3.55;;;;;;;25.88;52.36;99992.00;10351235;28;20050;-69
2023/07/15 18:38:04;;;;;;;6.30;3.40;;;;;;;25.71;52.98;99990.38;10361690;28;20098;-70
2023/07/15 18:43:05;;;;;;;5.45;3.58;;;;;;;25.54;53.86;99989.06;10367893;28;20049;-70
2023/07/15 18:48:06;;;;;;;11.75;3.78;;;;;;;25.13;54.31;99942.88;10362987;28;20520;-70
2023/07/15 18:53:06;;;;;;;6.40;3.72;;;;;;;25.31;54.56;99995.88;10365767;28;20050;-69
2023/07/15 18:58:07;;;;;;;9.20;4.13;;;;;;;24.74;54.76;99910.84;10357266;28;20038;-69
2023/07/15 19:03:08;;;;;;;10.10;3.65;;;;;;;24.97;54.29;99958.38;10361382;28;20046;-70
2023/07/15 19:08:09;;;;;;;8.15;3.75;;;;;;;25.12;54.21;99995.63;10349267;28;20034;-69
2023/07/15 19:13:09;;;;;;;6.30;4.07;;;;;;;25.21;54.00;99991.28;10357530;28;20088;-70
2023/07/15 19:18:10;;;;;;;7.53;3.33;;;;;;;24.79;54.31;99922.53;10356494;28;20046;-69
2023/07/15 19:23:14;;;;;;;11.40;3.60;;;;;;;25.19;54.60;99988.84;10355518;28;20046;-68
2023/07/15 19:28:15;;;;;;;9.25;3.53;;;;;;;25.25;54.69;100011.41;10360052;28;20050;-67
2023/07/15 19:33:16;;;;;;;7.85;3.63;;;;;;;25.22;54.60;100014.69;10348165;28;20559;-68
2023/07/15 19:38:17;;;;;;;11.27;3.80;;;;;;;25.13;55.48;100021.69;10352771;28;20048;-67
2023/07/15 19:43:17;;;;;;;8.68;4.07;;;;;;;25.15;56.52;100035.88;10325339;28;20130;-68
2023/07/15 19:48:18;;;;;;;11.85;3.92;;;;;;;24.95;55.99;100026.63;10332902;28;20548;-67
2023/07/15 19:53:19;;;;;;;7.80;3.30;;;;;;;24.94;56.34;100043.97;10324174;28;20053;-68
2023/07/15 19:58:20;;;;;;;12.77;3.42;;;;;;;24.47;56.33;99977.13;10324723;28;20046;-69
2023/07/15 20:03:20;;;;;;;14.80;3.97;;;;;;;24.74;56.20;100033.09;10324949;28;20047;-69
2023/07/15 20:08:22;;;;;;;17.75;4.18;;;;;;;24.54;58.12;100015.69;10325295;28;20498;-69
2023/07/15 20:13:23;;;;;;;5.70;3.70;;;;;;;24.50;59.66;100038.19;10342399;28;20073;-69
2023/07/15 20:18:24;;;;;;;12.50;3.70;;;;;;;24.25;60.92;100028.06;10344961;28;20052;-68
2023/07/15 20:23:24;;;;;;;8.32;4.53;;;;;;;23.89;61.60;99998.06;10346504;28;20042;-68
2023/07/15 20:28:25;;;;;;;11.38;4.00;;;;;;;24.04;61.44;100046.97;10360266;28;20439;-68
2023/07/15 20:33:26;;;;;;;7.07;3.58;;;;;;;23.96;61.23;100038.50;10331191;28;20054;-68
2023/07/15 20:38:27;;;;;;;14.05;4.13;;;;;;;23.91;61.23;100039.31;10341433;28;20084;-68
2023/07/15 20:43:28;;;;;;;8.48;3.40;;;;;;;23.97;61.02;100046.41;10346750;28;20034;-68
2023/07/15 20:48:29;;;;;;;10.45;4.32;;;;;;;23.82;62.04;100032.75;10330595;28;20057;-68
2023/07/15 20:53:29;;;;;;;11.15;4.18;;;;;;;23.44;62.81;99985.84;10329998;28;20042;-68
2023/07/15 20:58:30;;;;;;;12.75;4.05;;;;;;;23.22;63.45;99953.47;10329805;28;20095;-69
2023/07/15 21:03:31;;;;;;;28.63;4.97;;;;;;;23.64;63.50;100045.63;10330716;28;20048;-68
2023/07/15 21:08:32;;;;;;;13.30;4.60;;;;;;;23.13;64.05;99984.84;10346720;28;20049;-68
2023/07/15 21:13:33;;;;;;;19.60;5.10;;;;;;;23.41;65.10;100041.41;10370535;28;20390;-68
2023/07/15 21:18:37;;;;;;;10.55;3.83;;;;;;;22.87;66.29;99960.22;10369911;28;20048;-69
2023/07/15 21:23:38;;;;;;;5.95;4.03;;;;;;;23.21;66.77;100041.25;10370219;28;20542;-69
2023/07/15 21:28:43;;;;;;;12.18;4.45;;;;;;;23.05;66.60;100043.03;10369152;28;20159;-68
2023/07/15 21:33:43;;;;;;;8.60;4.07;;;;;;;22.94;66.78;100030.44;10368971;28;20060;-68
2023/07/15 21:38:44;;;;;;;10.02;4.40;;;;;;;22.96;66.58;100039.16;10369047;28;20132;-69
2023/07/15 21:43:45;;;;;;;8.48;3.70;;;;;;;22.98;66.83;100028.88;10367698;28;20038;-69
2023/07/15 21:48:46;;;;;;;16.23;4.63;;;;;;;23.05;67.20;100018.63;10368792;28;20091;-68
2023/07/15 21:53:46;;;;;;;7.28;3.90;;;;;;;23.15;66.04;100015.19;10368496;28;20041;-68
2023/07/15 21:58:47;;;;;;;11.02;5.10;;;;;;;22.88;65.65;99967.25;10368924;28;20041;-68
2023/07/15 22:03:48;;;;;;;7.22;4.80;;;;;;;23.22;65.55;100004.97;10368657;28;20041;-68
2023/07/15 22:08:49;;;;;;;8.88;4.47;;;;;;;23.34;65.29;100027.28;10369233;28;20046;-68
2023/07/15 22:13:50;;;;;;;11.13;4.63;;;;;;;23.25;66.04;99999.03;10367280;28;20034;-68
2023/07/15 22:18:50;;;;;;;7.25;4.70;;;;;;;22.60;65.68;99886.34;10367692;28;20076;-68
2023/07/15 22:23:51;;;;;;;9.50;4.75;;;;;;;23.25;65.74;100001.75;10367614;28;20040;-69
2023/07/15 22:28:53;;;;;;;8.85;4.68;;;;;;;23.19;66.46;100006.28;10368514;28;20042;-68
2023/07/15 22:33:54;;;;;;;10.40;4.32;;;;;;;22.51;66.62;99915.78;10368857;28;20061;-68
2023/07/15 22:38:55;;;;;;;7.88;4.88;;;;;;;22.94;66.69;99982.50;10367188;28;20092;-68
2023/07/15 22:43:56;;;;;;;6.82;4.20;;;;;;;22.78;66.77;99972.59;10366371;28;20134;-69
2023/07/15 22:48:57;;;;;;;8.15;4.70;;;;;;;22.90;67.09;99994.91;10367730;28;20065;-68
2023/07/15 22:53:59;;;;;;;10.13;4.63;;;;;;;22.84;67.27;100000.56;10366464;28;20525;-68
2023/07/15 22:59:00;;;;;;;12.90;5.10;;;;;;;22.76;67.43;99991.84;10366400;28;20069;-68
2023/07/15 23:04:00;;;;;;;7.65;4.97;;;;;;;22.43;67.80;99951.44;10341838;28;20049;-68
2023/07/15 23:09:01;;;;;;;8.95;4.70;;;;;;;22.84;68.23;100017.63;10344828;28;20051;-69